sensor_id;sensor_type;location;lat;lon;timestamp;temperature;humidity
55091;DHT22;40985;53.180;5.800;2022-07-31T00:00:07;16.70;99.90
55091;DHT22;40985;53.180;5.800;2022-07-31T00:02:35;16.70;99.90
55091;DHT22;40985;53.180;5.800;2022-07-31T00:05:02;16.70;99.90
55091;DHT22;40985;53.180;5.800;2022-07-31T00:07:28;16.70;99.90
55091;DHT22;40985;53.180;5.800;2022-07-31T00:09:53;16.70;99.90
55091;DHT22;40985;53.180;5.800;2022-07-31T00:12:20;16.70;99.90
55091;DHT22;40985;53.180;5.800;2022-07-31T00:14:47;16.70;99.90
55091;DHT22;40985;53.180;5.800;2022-07-31T00:17:12;16.70;99.90
55091;DHT22;40985;53.180;5.800;2022-07-31T00:19:38;16.70;99.90
55091;DHT22;40985;53.180;5.800;2022-07-31T00:22:05;16.70;99.90
55091;DHT22;40985;53.180;5.800;2022-07-31T00:24:30;16.70;99.90
55091;DHT22;40985;53.180;5.800;2022-07-31T00:26:56;16.70;99.90
55091;DHT22;40985;53.180;5.800;2022-07-31T00:29:22;16.70;99.90
55091;DHT22;40985;53.180;5.800;2022-07-31T00:31:47;16.70;99.90
55091;DHT22;40985;53.180;5.800;2022-07-31T00:34:13;16.70;99.90
55091;DHT22;40985;53.180;5.800;2022-07-31T00:36:39;16.80;99.90
55091;DHT22;40985;53.180;5.800;2022-07-31T00:39:04;16.80;99.90
55091;DHT22;40985;53.180;5.800;2022-07-31T00:41:41;16.80;99.90
55091;DHT22;40985;53.180;5.800;2022-07-31T00:44:08;16.80;99.90
55091;DHT22;40985;53.180;5.800;2022-07-31T00:46:34;16.80;99.90
55091;DHT22;40985;53.180;5.800;2022-07-31T00:48:59;16.80;99.90
55091;DHT22;40985;53.180;5.800;2022-07-31T00:51:25;16.80;99.90
55091;DHT22;40985;53.180;5.800;2022-07-31T00:53:51;16.80;99.90
55091;DHT22;40985;53.180;5.800;2022-07-31T00:56:16;16.80;99.90
55091;DHT22;40985;53.180;5.800;2022-07-31T00:58:42;16.80;99.90
55091;DHT22;40985;53.180;5.800;2022-07-31T01:01:08;16.80;99.90
55091;DHT22;40985;53.180;5.800;2022-07-31T01:03:33;16.80;99.90
55091;DHT22;40985;53.180;5.800;2022-07-31T01:06:00;16.80;99.90
55091;DHT22;40985;53.180;5.800;2022-07-31T01:08:25;16.80;99.90
55091;DHT22;40985;53.180;5.800;2022-07-31T01:10:53;16.80;99.90
55091;DHT22;40985;53.180;5.800;2022-07-31T01:13:34;16.80;99.90
55091;DHT22;40985;53.180;5.800;2022-07-31T01:16:04;16.80;99.90
55091;DHT22;40985;53.180;5.800;2022-07-31T01:18:32;16.80;99.90
55091;DHT22;40985;53.180;5.800;2022-07-31T01:21:03;16.80;99.90
55091;DHT22;40985;53.180;5.800;2022-07-31T01:24:02;16.80;99.90
55091;DHT22;40985;53.180;5.800;2022-07-31T01:26:39;16.80;99.90
55091;DHT22;40985;53.180;5.800;2022-07-31T01:31:45;16.80;99.90
55091;DHT22;40985;53.180;5.800;2022-07-31T01:37:07;16.80;99.90
55091;DHT22;40985;53.180;5.800;2022-07-31T01:39:35;16.80;99.90
55091;DHT22;40985;53.180;5.800;2022-07-31T01:42:04;16.80;99.90
55091;DHT22;40985;53.180;5.800;2022-07-31T01:44:34;16.80;99.90
55091;DHT22;40985;53.180;5.800;2022-07-31T01:47:03;16.80;99.90
55091;DHT22;40985;53.180;5.800;2022-07-31T01:49:30;16.80;99.90
55091;DHT22;40985;53.180;5.800;2022-07-31T01:51:57;16.80;99.90
55091;DHT22;40985;53.180;5.800;2022-07-31T01:54:24;16.80;99.90
55091;DHT22;40985;53.180;5.800;2022-07-31T01:56:51;16.80;99.90
55091;DHT22;40985;53.180;5.800;2022-07-31T01:59:18;16.80;99.90
55091;DHT22;40985;53.180;5.800;2022-07-31T02:01:46;16.80;99.90
55091;DHT22;40985;53.180;5.800;2022-07-31T02:04:14;16.80;99.90
55091;DHT22;40985;53.180;5.800;2022-07-31T02:06:40;16.80;99.90
55091;DHT22;40985;53.180;5.800;2022-07-31T02:09:08;16.80;99.90
55091;DHT22;40985;53.180;5.800;2022-07-31T02:11:34;16.80;99.90
55091;DHT22;40985;53.180;5.800;2022-07-31T02:14:00;16.80;99.90
55091;DHT22;40985;53.180;5.800;2022-07-31T02:16:27;16.80;99.90
55091;DHT22;40985;53.180;5.800;2022-07-31T02:18:54;16.80;99.90
55091;DHT22;40985;53.180;5.800;2022-07-31T02:21:24;16.80;99.90
55091;DHT22;40985;53.180;5.800;2022-07-31T02:23:50;16.80;99.90
55091;DHT22;40985;53.180;5.800;2022-07-31T02:26:16;16.70;99.90
55091;DHT22;40985;53.180;5.800;2022-07-31T02:28:43;16.70;99.90
55091;DHT22;40985;53.180;5.800;2022-07-31T02:31:12;16.70;99.90
55091;DHT22;40985;53.180;5.800;2022-07-31T02:33:41;16.70;99.90
55091;DHT22;40985;53.180;5.800;2022-07-31T02:36:08;16.70;99.90
55091;DHT22;40985;53.180;5.800;2022-07-31T02:38:35;16.70;99.90
55091;DHT22;40985;53.180;5.800;2022-07-31T02:41:02;16.60;99.90
55091;DHT22;40985;53.180;5.800;2022-07-31T02:43:31;16.60;99.90
55091;DHT22;40985;53.180;5.800;2022-07-31T02:45:57;16.60;99.90
55091;DHT22;40985;53.180;5.800;2022-07-31T02:48:24;16.50;99.90
55091;DHT22;40985;53.180;5.800;2022-07-31T02:50:49;16.50;99.90
55091;DHT22;40985;53.180;5.800;2022-07-31T02:53:15;16.50;99.90
55091;DHT22;40985;53.180;5.800;2022-07-31T02:55:43;16.40;99.90
55091;DHT22;40985;53.180;5.800;2022-07-31T02:58:10;16.40;99.90
55091;DHT22;40985;53.180;5.800;2022-07-31T03:00:36;16.40;99.90
55091;DHT22;40985;53.180;5.800;2022-07-31T03:03:02;16.50;99.90
55091;DHT22;40985;53.180;5.800;2022-07-31T03:05:28;16.40;99.90
55091;DHT22;40985;53.180;5.800;2022-07-31T03:07:53;16.40;99.90
55091;DHT22;40985;53.180;5.800;2022-07-31T03:10:19;16.50;99.90
55091;DHT22;40985;53.180;5.800;2022-07-31T03:12:47;16.50;99.90
55091;DHT22;40985;53.180;5.800;2022-07-31T03:15:18;16.50;99.90
55091;DHT22;40985;53.180;5.800;2022-07-31T03:17:45;16.50;99.90
55091;DHT22;40985;53.180;5.800;2022-07-31T03:20:13;16.40;99.90
55091;DHT22;40985;53.180;5.800;2022-07-31T03:22:39;16.40;99.90
55091;DHT22;40985;53.180;5.800;2022-07-31T03:25:06;16.40;99.90
55091;DHT22;40985;53.180;5.800;2022-07-31T03:27:32;16.40;99.90
55091;DHT22;40985;53.180;5.800;2022-07-31T03:29:58;16.40;99.90
55091;DHT22;40985;53.180;5.800;2022-07-31T03:32:24;16.40;99.90
55091;DHT22;40985;53.180;5.800;2022-07-31T03:34:49;16.40;99.90
55091;DHT22;40985;53.180;5.800;2022-07-31T03:37:15;16.30;99.90
55091;DHT22;40985;53.180;5.800;2022-07-31T03:39:41;16.30;99.90
55091;DHT22;40985;53.180;5.800;2022-07-31T03:42:11;16.30;99.90
55091;DHT22;40985;53.180;5.800;2022-07-31T03:44:38;16.30;99.90
55091;DHT22;40985;53.180;5.800;2022-07-31T03:47:05;16.30;99.90
55091;DHT22;40985;53.180;5.800;2022-07-31T03:49:31;16.30;99.90
55091;DHT22;40985;53.180;5.800;2022-07-31T03:51:57;16.30;99.90
55091;DHT22;40985;53.180;5.800;2022-07-31T03:54:23;16.30;99.90
55091;DHT22;40985;53.180;5.800;2022-07-31T03:56:50;16.30;99.90
55091;DHT22;40985;53.180;5.800;2022-07-31T03:59:17;16.30;99.90
55091;DHT22;40985;53.180;5.800;2022-07-31T04:01:44;16.30;99.90
55091;DHT22;40985;53.180;5.800;2022-07-31T04:04:10;16.30;99.90
55091;DHT22;40985;53.180;5.800;2022-07-31T04:06:36;16.30;99.90
55091;DHT22;40985;53.180;5.800;2022-07-31T04:09:02;16.40;99.90
55091;DHT22;40985;53.180;5.800;2022-07-31T04:11:27;16.30;99.90
55091;DHT22;40985;53.180;5.800;2022-07-31T04:13:53;16.40;99.90
55091;DHT22;40985;53.180;5.800;2022-07-31T04:16:19;16.30;99.90
55091;DHT22;40985;53.180;5.800;2022-07-31T04:18:45;16.40;99.90
55091;DHT22;40985;53.180;5.800;2022-07-31T04:21:12;16.40;99.90
55091;DHT22;40985;53.180;5.800;2022-07-31T04:23:37;16.40;99.90
55091;DHT22;40985;53.180;5.800;2022-07-31T04:26:03;16.40;99.90
55091;DHT22;40985;53.180;5.800;2022-07-31T04:28:29;16.40;99.90
55091;DHT22;40985;53.180;5.800;2022-07-31T04:30:55;16.50;99.90
55091;DHT22;40985;53.180;5.800;2022-07-31T04:33:21;16.40;99.90
55091;DHT22;40985;53.180;5.800;2022-07-31T04:35:47;16.50;99.90
55091;DHT22;40985;53.180;5.800;2022-07-31T04:38:13;16.40;99.90
55091;DHT22;40985;53.180;5.800;2022-07-31T04:40:41;16.50;99.90
55091;DHT22;40985;53.180;5.800;2022-07-31T04:43:07;16.50;99.90
55091;DHT22;40985;53.180;5.800;2022-07-31T04:45:32;16.50;99.90
55091;DHT22;40985;53.180;5.800;2022-07-31T04:47:58;16.60;99.90
55091;DHT22;40985;53.180;5.800;2022-07-31T04:50:24;16.60;99.90
55091;DHT22;40985;53.180;5.800;2022-07-31T04:52:49;16.70;99.90
55091;DHT22;40985;53.180;5.800;2022-07-31T04:55:15;16.70;99.90
55091;DHT22;40985;53.180;5.800;2022-07-31T04:57:40;16.70;99.90
55091;DHT22;40985;53.180;5.800;2022-07-31T05:00:07;16.70;99.90
55091;DHT22;40985;53.180;5.800;2022-07-31T05:02:33;16.80;99.90
55091;DHT22;40985;53.180;5.800;2022-07-31T05:05:00;16.70;99.90
55091;DHT22;40985;53.180;5.800;2022-07-31T05:07:25;16.80;99.90
55091;DHT22;40985;53.180;5.800;2022-07-31T05:09:51;16.90;99.90
55091;DHT22;40985;53.180;5.800;2022-07-31T05:12:17;16.90;99.90
55091;DHT22;40985;53.180;5.800;2022-07-31T05:14:42;17.00;99.90
55091;DHT22;40985;53.180;5.800;2022-07-31T05:17:08;17.10;99.90
55091;DHT22;40985;53.180;5.800;2022-07-31T05:19:34;17.10;99.90
55091;DHT22;40985;53.180;5.800;2022-07-31T05:21:59;17.10;99.90
55091;DHT22;40985;53.180;5.800;2022-07-31T05:24:25;17.20;99.90
55091;DHT22;40985;53.180;5.800;2022-07-31T05:26:51;17.20;99.90
55091;DHT22;40985;53.180;5.800;2022-07-31T05:29:16;17.20;99.90
55091;DHT22;40985;53.180;5.800;2022-07-31T05:31:43;17.20;99.90
55091;DHT22;40985;53.180;5.800;2022-07-31T05:34:08;17.30;99.90
55091;DHT22;40985;53.180;5.800;2022-07-31T05:36:34;17.30;99.90
55091;DHT22;40985;53.180;5.800;2022-07-31T05:39:00;17.40;99.90
55091;DHT22;40985;53.180;5.800;2022-07-31T05:41:25;17.40;99.90
55091;DHT22;40985;53.180;5.800;2022-07-31T05:43:51;17.40;99.90
55091;DHT22;40985;53.180;5.800;2022-07-31T05:46:17;17.40;99.90
55091;DHT22;40985;53.180;5.800;2022-07-31T05:48:46;17.40;99.90
55091;DHT22;40985;53.180;5.800;2022-07-31T05:51:12;17.50;99.90
55091;DHT22;40985;53.180;5.800;2022-07-31T05:53:39;17.50;99.90
55091;DHT22;40985;53.180;5.800;2022-07-31T05:56:05;17.50;99.90
55091;DHT22;40985;53.180;5.800;2022-07-31T05:58:32;17.50;99.90
55091;DHT22;40985;53.180;5.800;2022-07-31T06:00:59;17.60;99.90
55091;DHT22;40985;53.180;5.800;2022-07-31T06:03:25;17.60;99.90
55091;DHT22;40985;53.180;5.800;2022-07-31T06:05:55;17.60;99.90
55091;DHT22;40985;53.180;5.800;2022-07-31T06:08:21;17.60;99.90
55091;DHT22;40985;53.180;5.800;2022-07-31T06:10:47;17.70;99.90
55091;DHT22;40985;53.180;5.800;2022-07-31T06:13:13;17.70;99.90
55091;DHT22;40985;53.180;5.800;2022-07-31T06:15:40;17.70;99.90
55091;DHT22;40985;53.180;5.800;2022-07-31T06:18:06;17.70;99.90
55091;DHT22;40985;53.180;5.800;2022-07-31T06:20:32;17.80;99.90
55091;DHT22;40985;53.180;5.800;2022-07-31T06:22:58;17.80;99.90
55091;DHT22;40985;53.180;5.800;2022-07-31T06:25:24;17.80;99.90
55091;DHT22;40985;53.180;5.800;2022-07-31T06:27:50;17.90;99.90
55091;DHT22;40985;53.180;5.800;2022-07-31T06:30:16;17.90;99.90
55091;DHT22;40985;53.180;5.800;2022-07-31T06:32:42;17.90;99.90
55091;DHT22;40985;53.180;5.800;2022-07-31T06:35:08;18.00;99.90
55091;DHT22;40985;53.180;5.800;2022-07-31T06:37:34;18.00;99.90
55091;DHT22;40985;53.180;5.800;2022-07-31T06:40:00;18.00;99.90
55091;DHT22;40985;53.180;5.800;2022-07-31T06:42:26;18.10;99.90
55091;DHT22;40985;53.180;5.800;2022-07-31T06:44:52;18.10;99.90
55091;DHT22;40985;53.180;5.800;2022-07-31T06:47:23;18.20;99.90
55091;DHT22;40985;53.180;5.800;2022-07-31T06:49:49;18.30;99.90
55091;DHT22;40985;53.180;5.800;2022-07-31T06:52:16;18.40;99.90
55091;DHT22;40985;53.180;5.800;2022-07-31T06:54:42;18.40;99.90
55091;DHT22;40985;53.180;5.800;2022-07-31T06:57:09;18.50;99.90
55091;DHT22;40985;53.180;5.800;2022-07-31T06:59:35;18.60;99.90
55091;DHT22;40985;53.180;5.800;2022-07-31T07:02:01;18.60;99.90
55091;DHT22;40985;53.180;5.800;2022-07-31T07:04:26;18.60;99.90
55091;DHT22;40985;53.180;5.800;2022-07-31T07:06:52;18.70;99.90
55091;DHT22;40985;53.180;5.800;2022-07-31T07:09:17;18.60;99.90
55091;DHT22;40985;53.180;5.800;2022-07-31T07:11:43;18.70;99.90
55091;DHT22;40985;53.180;5.800;2022-07-31T07:14:09;18.70;99.90
55091;DHT22;40985;53.180;5.800;2022-07-31T07:16:34;18.80;99.90
55091;DHT22;40985;53.180;5.800;2022-07-31T07:19:00;18.80;99.90
55091;DHT22;40985;53.180;5.800;2022-07-31T07:21:26;18.90;99.90
55091;DHT22;40985;53.180;5.800;2022-07-31T07:23:51;18.90;99.90
55091;DHT22;40985;53.180;5.800;2022-07-31T07:26:17;19.00;99.90
55091;DHT22;40985;53.180;5.800;2022-07-31T07:28:44;19.00;99.90
55091;DHT22;40985;53.180;5.800;2022-07-31T07:31:10;19.00;99.90
55091;DHT22;40985;53.180;5.800;2022-07-31T07:33:36;19.00;99.90
55091;DHT22;40985;53.180;5.800;2022-07-31T07:36:02;19.10;99.90
55091;DHT22;40985;53.180;5.800;2022-07-31T07:38:28;19.10;99.90
55091;DHT22;40985;53.180;5.800;2022-07-31T07:40:54;19.10;99.90
55091;DHT22;40985;53.180;5.800;2022-07-31T07:43:19;19.10;99.90
55091;DHT22;40985;53.180;5.800;2022-07-31T07:45:45;19.10;99.90
55091;DHT22;40985;53.180;5.800;2022-07-31T07:48:10;19.10;99.90
55091;DHT22;40985;53.180;5.800;2022-07-31T07:50:36;19.10;99.90
55091;DHT22;40985;53.180;5.800;2022-07-31T07:53:02;19.10;99.90
55091;DHT22;40985;53.180;5.800;2022-07-31T07:55:27;19.00;99.90
55091;DHT22;40985;53.180;5.800;2022-07-31T07:57:53;19.00;99.90
55091;DHT22;40985;53.180;5.800;2022-07-31T08:00:19;19.00;99.90
55091;DHT22;40985;53.180;5.800;2022-07-31T08:02:45;19.00;99.90
55091;DHT22;40985;53.180;5.800;2022-07-31T08:05:14;19.00;99.90
55091;DHT22;40985;53.180;5.800;2022-07-31T08:07:41;19.00;99.90
55091;DHT22;40985;53.180;5.800;2022-07-31T08:10:07;19.00;99.90
55091;DHT22;40985;53.180;5.800;2022-07-31T08:12:33;18.90;99.90
55091;DHT22;40985;53.180;5.800;2022-07-31T08:14:59;18.90;99.90
55091;DHT22;40985;53.180;5.800;2022-07-31T08:17:25;18.90;99.90
55091;DHT22;40985;53.180;5.800;2022-07-31T08:19:51;18.80;99.90
55091;DHT22;40985;53.180;5.800;2022-07-31T08:22:17;18.80;99.90
55091;DHT22;40985;53.180;5.800;2022-07-31T08:24:43;18.80;99.90
55091;DHT22;40985;53.180;5.800;2022-07-31T08:27:08;18.80;99.90
55091;DHT22;40985;53.180;5.800;2022-07-31T08:29:51;18.80;99.90
55091;DHT22;40985;53.180;5.800;2022-07-31T08:32:16;18.80;99.90
55091;DHT22;40985;53.180;5.800;2022-07-31T08:34:42;18.80;99.90
55091;DHT22;40985;53.180;5.800;2022-07-31T08:37:08;18.80;99.90
55091;DHT22;40985;53.180;5.800;2022-07-31T08:39:34;18.80;99.90
55091;DHT22;40985;53.180;5.800;2022-07-31T08:42:08;18.80;99.90
55091;DHT22;40985;53.180;5.800;2022-07-31T08:44:41;18.90;99.90
55091;DHT22;40985;53.180;5.800;2022-07-31T08:47:08;18.90;99.90
55091;DHT22;40985;53.180;5.800;2022-07-31T08:49:52;19.00;99.90
55091;DHT22;40985;53.180;5.800;2022-07-31T08:52:21;19.00;99.90
55091;DHT22;40985;53.180;5.800;2022-07-31T08:54:52;19.00;99.90
55091;DHT22;40985;53.180;5.800;2022-07-31T08:57:19;19.00;99.90
55091;DHT22;40985;53.180;5.800;2022-07-31T08:59:45;19.00;99.90
55091;DHT22;40985;53.180;5.800;2022-07-31T09:02:12;19.10;99.90
55091;DHT22;40985;53.180;5.800;2022-07-31T09:04:38;19.10;99.90
55091;DHT22;40985;53.180;5.800;2022-07-31T09:07:04;19.00;99.90
55091;DHT22;40985;53.180;5.800;2022-07-31T09:09:30;19.00;99.90
55091;DHT22;40985;53.180;5.800;2022-07-31T09:11:56;19.00;99.90
55091;DHT22;40985;53.180;5.800;2022-07-31T09:14:30;19.00;99.90
55091;DHT22;40985;53.180;5.800;2022-07-31T09:16:57;19.00;99.90
55091;DHT22;40985;53.180;5.800;2022-07-31T09:19:24;19.00;99.90
55091;DHT22;40985;53.180;5.800;2022-07-31T09:21:50;19.00;99.90
55091;DHT22;40985;53.180;5.800;2022-07-31T09:24:31;19.00;99.90
55091;DHT22;40985;53.180;5.800;2022-07-31T09:27:06;19.00;99.90
55091;DHT22;40985;53.180;5.800;2022-07-31T09:29:37;19.00;99.90
55091;DHT22;40985;53.180;5.800;2022-07-31T09:32:16;19.00;99.90
55091;DHT22;40985;53.180;5.800;2022-07-31T09:34:42;19.00;99.90
55091;DHT22;40985;53.180;5.800;2022-07-31T09:37:15;19.00;99.90
55091;DHT22;40985;53.180;5.800;2022-07-31T09:39:47;18.90;99.90
55091;DHT22;40985;53.180;5.800;2022-07-31T09:42:13;18.90;99.90
55091;DHT22;40985;53.180;5.800;2022-07-31T09:44:41;19.00;99.90
55091;DHT22;40985;53.180;5.800;2022-07-31T09:47:36;18.90;99.90
55091;DHT22;40985;53.180;5.800;2022-07-31T09:50:03;18.90;99.90
55091;DHT22;40985;53.180;5.800;2022-07-31T09:52:30;18.90;99.90
55091;DHT22;40985;53.180;5.800;2022-07-31T09:55:01;18.90;99.90
55091;DHT22;40985;53.180;5.800;2022-07-31T09:57:28;18.90;99.90
55091;DHT22;40985;53.180;5.800;2022-07-31T09:59:54;18.80;99.90
55091;DHT22;40985;53.180;5.800;2022-07-31T10:02:20;18.80;99.90
55091;DHT22;40985;53.180;5.800;2022-07-31T10:04:47;18.80;99.90
55091;DHT22;40985;53.180;5.800;2022-07-31T10:07:15;18.80;99.90
55091;DHT22;40985;53.180;5.800;2022-07-31T10:09:42;18.70;99.90
55091;DHT22;40985;53.180;5.800;2022-07-31T10:12:12;18.70;99.90
55091;DHT22;40985;53.180;5.800;2022-07-31T10:14:40;18.70;99.90
55091;DHT22;40985;53.180;5.800;2022-07-31T10:17:08;18.70;99.90
55091;DHT22;40985;53.180;5.800;2022-07-31T10:19:36;18.70;99.90
55091;DHT22;40985;53.180;5.800;2022-07-31T10:22:04;18.70;99.90
55091;DHT22;40985;53.180;5.800;2022-07-31T10:24:35;18.70;99.90
55091;DHT22;40985;53.180;5.800;2022-07-31T10:27:05;18.70;99.90
55091;DHT22;40985;53.180;5.800;2022-07-31T10:29:31;18.70;99.90
55091;DHT22;40985;53.180;5.800;2022-07-31T10:31:57;18.70;99.90
55091;DHT22;40985;53.180;5.800;2022-07-31T10:34:24;18.70;99.90
55091;DHT22;40985;53.180;5.800;2022-07-31T10:36:53;18.70;99.90
55091;DHT22;40985;53.180;5.800;2022-07-31T10:44:50;18.70;99.90
55091;DHT22;40985;53.180;5.800;2022-07-31T10:47:18;18.70;99.90
55091;DHT22;40985;53.180;5.800;2022-07-31T10:49:45;18.60;99.90
55091;DHT22;40985;53.180;5.800;2022-07-31T10:52:13;18.60;99.90
55091;DHT22;40985;53.180;5.800;2022-07-31T10:54:43;18.60;99.90
55091;DHT22;40985;53.180;5.800;2022-07-31T10:57:21;18.50;99.90
55091;DHT22;40985;53.180;5.800;2022-07-31T10:59:46;18.50;99.90
55091;DHT22;40985;53.180;5.800;2022-07-31T11:02:12;18.50;99.90
55091;DHT22;40985;53.180;5.800;2022-07-31T11:04:38;18.50;99.90
55091;DHT22;40985;53.180;5.800;2022-07-31T11:07:14;18.50;99.90
55091;DHT22;40985;53.180;5.800;2022-07-31T11:09:39;18.40;99.90
55091;DHT22;40985;53.180;5.800;2022-07-31T11:12:17;18.40;99.90
55091;DHT22;40985;53.180;5.800;2022-07-31T11:14:43;18.40;99.90
55091;DHT22;40985;53.180;5.800;2022-07-31T11:17:08;18.40;99.90
55091;DHT22;40985;53.180;5.800;2022-07-31T11:19:41;18.40;99.90
55091;DHT22;40985;53.180;5.800;2022-07-31T11:22:09;18.50;99.90
55091;DHT22;40985;53.180;5.800;2022-07-31T11:24:36;18.50;99.90
55091;DHT22;40985;53.180;5.800;2022-07-31T11:27:02;18.50;99.90
55091;DHT22;40985;53.180;5.800;2022-07-31T11:29:34;18.50;99.90
55091;DHT22;40985;53.180;5.800;2022-07-31T11:34:30;18.50;99.90
55091;DHT22;40985;53.180;5.800;2022-07-31T11:36:56;18.50;99.90
55091;DHT22;40985;53.180;5.800;2022-07-31T11:39:22;18.50;99.90
55091;DHT22;40985;53.180;5.800;2022-07-31T11:41:51;18.60;99.90
55091;DHT22;40985;53.180;5.800;2022-07-31T11:44:20;18.50;99.90
55091;DHT22;40985;53.180;5.800;2022-07-31T11:46:48;18.60;99.90
55091;DHT22;40985;53.180;5.800;2022-07-31T11:49:19;18.60;99.90
55091;DHT22;40985;53.180;5.800;2022-07-31T11:51:46;18.70;99.90
55091;DHT22;40985;53.180;5.800;2022-07-31T11:54:25;18.80;99.90
55091;DHT22;40985;53.180;5.800;2022-07-31T11:56:52;18.80;99.90
55091;DHT22;40985;53.180;5.800;2022-07-31T11:59:30;18.90;99.90
55091;DHT22;40985;53.180;5.800;2022-07-31T12:02:09;18.90;99.90
55091;DHT22;40985;53.180;5.800;2022-07-31T12:04:36;18.90;99.90
55091;DHT22;40985;53.180;5.800;2022-07-31T12:07:04;19.00;99.90
55091;DHT22;40985;53.180;5.800;2022-07-31T12:09:30;19.00;99.90
55091;DHT22;40985;53.180;5.800;2022-07-31T12:11:57;19.10;99.90
55091;DHT22;40985;53.180;5.800;2022-07-31T12:14:28;19.10;99.90
55091;DHT22;40985;53.180;5.800;2022-07-31T12:16:54;19.20;99.90
55091;DHT22;40985;53.180;5.800;2022-07-31T12:19:31;19.10;99.90
55091;DHT22;40985;53.180;5.800;2022-07-31T12:21:58;19.10;99.90
55091;DHT22;40985;53.180;5.800;2022-07-31T12:24:24;19.10;99.90
55091;DHT22;40985;53.180;5.800;2022-07-31T12:26:55;19.00;99.90
55091;DHT22;40985;53.180;5.800;2022-07-31T12:29:30;19.00;99.90
55091;DHT22;40985;53.180;5.800;2022-07-31T12:31:55;18.90;99.90
55091;DHT22;40985;53.180;5.800;2022-07-31T12:34:35;18.90;99.90
55091;DHT22;40985;53.180;5.800;2022-07-31T12:37:16;19.00;99.90
55091;DHT22;40985;53.180;5.800;2022-07-31T12:42:23;19.10;99.90
55091;DHT22;40985;53.180;5.800;2022-07-31T12:44:49;19.20;99.90
55091;DHT22;40985;53.180;5.800;2022-07-31T12:47:23;19.30;99.90
55091;DHT22;40985;53.180;5.800;2022-07-31T12:49:49;19.30;99.90
55091;DHT22;40985;53.180;5.800;2022-07-31T12:52:14;19.30;99.90
55091;DHT22;40985;53.180;5.800;2022-07-31T12:54:40;19.20;99.90
55091;DHT22;40985;53.180;5.800;2022-07-31T12:57:06;19.10;99.90
55091;DHT22;40985;53.180;5.800;2022-07-31T12:59:31;19.20;99.90
55091;DHT22;40985;53.180;5.800;2022-07-31T13:01:57;19.20;99.90
55091;DHT22;40985;53.180;5.800;2022-07-31T13:04:23;19.10;99.90
55091;DHT22;40985;53.180;5.800;2022-07-31T13:06:48;19.20;99.90
55091;DHT22;40985;53.180;5.800;2022-07-31T13:09:16;19.30;99.90
55091;DHT22;40985;53.180;5.800;2022-07-31T13:11:42;19.40;99.90
55091;DHT22;40985;53.180;5.800;2022-07-31T13:14:08;19.50;99.90
55091;DHT22;40985;53.180;5.800;2022-07-31T13:16:34;19.50;99.90
55091;DHT22;40985;53.180;5.800;2022-07-31T13:18:59;19.50;99.90
55091;DHT22;40985;53.180;5.800;2022-07-31T13:21:25;19.40;99.90
55091;DHT22;40985;53.180;5.800;2022-07-31T13:23:52;19.30;99.90
55091;DHT22;40985;53.180;5.800;2022-07-31T13:26:18;19.20;99.90
55091;DHT22;40985;53.180;5.800;2022-07-31T13:28:45;19.20;99.90
55091;DHT22;40985;53.180;5.800;2022-07-31T13:31:10;19.20;99.90
55091;DHT22;40985;53.180;5.800;2022-07-31T13:33:36;19.20;99.90
55091;DHT22;40985;53.180;5.800;2022-07-31T13:36:02;19.20;99.90
55091;DHT22;40985;53.180;5.800;2022-07-31T13:38:29;19.10;99.90
55091;DHT22;40985;53.180;5.800;2022-07-31T13:40:55;19.10;99.90
55091;DHT22;40985;53.180;5.800;2022-07-31T13:43:39;19.20;99.90
55091;DHT22;40985;53.180;5.800;2022-07-31T13:46:05;19.30;99.90
55091;DHT22;40985;53.180;5.800;2022-07-31T13:48:31;19.30;99.90
55091;DHT22;40985;53.180;5.800;2022-07-31T13:50:58;19.40;99.90
55091;DHT22;40985;53.180;5.800;2022-07-31T13:53:23;19.50;99.90
55091;DHT22;40985;53.180;5.800;2022-07-31T13:55:49;19.50;99.90
55091;DHT22;40985;53.180;5.800;2022-07-31T13:58:14;19.50;99.90
55091;DHT22;40985;53.180;5.800;2022-07-31T14:00:40;19.60;99.90
55091;DHT22;40985;53.180;5.800;2022-07-31T14:03:06;19.70;99.90
55091;DHT22;40985;53.180;5.800;2022-07-31T14:05:32;19.80;99.90
55091;DHT22;40985;53.180;5.800;2022-07-31T14:07:58;19.70;99.90
55091;DHT22;40985;53.180;5.800;2022-07-31T14:10:24;19.60;99.90
55091;DHT22;40985;53.180;5.800;2022-07-31T14:12:50;19.40;99.90
55091;DHT22;40985;53.180;5.800;2022-07-31T14:15:17;19.40;99.90
55091;DHT22;40985;53.180;5.800;2022-07-31T14:17:43;19.40;99.90
55091;DHT22;40985;53.180;5.800;2022-07-31T14:20:09;19.50;99.90
55091;DHT22;40985;53.180;5.800;2022-07-31T14:22:36;19.50;99.90
55091;DHT22;40985;53.180;5.800;2022-07-31T14:25:02;19.70;99.90
55091;DHT22;40985;53.180;5.800;2022-07-31T14:27:28;19.80;99.90
55091;DHT22;40985;53.180;5.800;2022-07-31T14:29:54;19.70;99.90
55091;DHT22;40985;53.180;5.800;2022-07-31T14:32:19;19.70;99.90
55091;DHT22;40985;53.180;5.800;2022-07-31T14:34:47;19.70;99.90
55091;DHT22;40985;53.180;5.800;2022-07-31T14:37:13;19.80;99.90
55091;DHT22;40985;53.180;5.800;2022-07-31T14:39:39;19.80;99.90
55091;DHT22;40985;53.180;5.800;2022-07-31T14:42:04;19.80;99.90
55091;DHT22;40985;53.180;5.800;2022-07-31T14:44:30;19.60;99.90
55091;DHT22;40985;53.180;5.800;2022-07-31T14:46:56;19.70;99.90
55091;DHT22;40985;53.180;5.800;2022-07-31T14:49:21;19.70;99.90
55091;DHT22;40985;53.180;5.800;2022-07-31T14:51:47;19.60;99.90
55091;DHT22;40985;53.180;5.800;2022-07-31T14:54:13;19.50;99.90
55091;DHT22;40985;53.180;5.800;2022-07-31T14:56:38;19.50;99.90
55091;DHT22;40985;53.180;5.800;2022-07-31T14:59:04;19.50;99.90
55091;DHT22;40985;53.180;5.800;2022-07-31T15:01:30;19.50;99.90
55091;DHT22;40985;53.180;5.800;2022-07-31T15:03:55;19.50;99.90
55091;DHT22;40985;53.180;5.800;2022-07-31T15:06:21;19.50;99.90
55091;DHT22;40985;53.180;5.800;2022-07-31T15:08:47;19.50;99.90
55091;DHT22;40985;53.180;5.800;2022-07-31T15:11:13;19.50;99.90
55091;DHT22;40985;53.180;5.800;2022-07-31T15:13:38;19.40;99.90
55091;DHT22;40985;53.180;5.800;2022-07-31T15:16:04;19.30;99.90
55091;DHT22;40985;53.180;5.800;2022-07-31T15:18:30;19.30;99.90
55091;DHT22;40985;53.180;5.800;2022-07-31T15:20:55;19.40;99.90
55091;DHT22;40985;53.180;5.800;2022-07-31T15:23:21;19.30;99.90
55091;DHT22;40985;53.180;5.800;2022-07-31T15:25:47;19.40;99.90
55091;DHT22;40985;53.180;5.800;2022-07-31T15:28:13;19.40;99.90
55091;DHT22;40985;53.180;5.800;2022-07-31T15:30:38;19.50;99.90
55091;DHT22;40985;53.180;5.800;2022-07-31T15:33:04;19.50;99.90
55091;DHT22;40985;53.180;5.800;2022-07-31T15:35:30;19.60;99.90
55091;DHT22;40985;53.180;5.800;2022-07-31T15:37:55;19.70;99.90
55091;DHT22;40985;53.180;5.800;2022-07-31T15:40:24;19.70;99.90
55091;DHT22;40985;53.180;5.800;2022-07-31T15:42:50;19.80;99.90
55091;DHT22;40985;53.180;5.800;2022-07-31T15:45:17;19.80;99.90